sensor_id;sensor_type;location;lat;lon;timestamp;temperature;humidity
18141;DHT22;9196;49.194;12.526;2023-10-13T00:01:21;15.20;99.90
18141;DHT22;9196;49.194;12.526;2023-10-13T00:03:48;15.20;99.90
18141;DHT22;9196;49.194;12.526;2023-10-13T00:06:15;15.20;99.90
18141;DHT22;9196;49.194;12.526;2023-10-13T00:08:43;15.30;99.90
18141;DHT22;9196;49.194;12.526;2023-10-13T00:11:12;15.30;99.90
18141;DHT22;9196;49.194;12.526;2023-10-13T00:13:39;15.30;99.90
18141;DHT22;9196;49.194;12.526;2023-10-13T00:16:17;15.40;99.90
18141;DHT22;9196;49.194;12.526;2023-10-13T00:18:47;15.40;99.90
18141;DHT22;9196;49.194;12.526;2023-10-13T00:21:17;15.30;99.90
18141;DHT22;9196;49.194;12.526;2023-10-13T00:23:57;15.40;99.90
18141;DHT22;9196;49.194;12.526;2023-10-13T00:26:29;15.30;99.90
18141;DHT22;9196;49.194;12.526;2023-10-13T00:28:56;15.20;99.90
18141;DHT22;9196;49.194;12.526;2023-10-13T00:31:36;15.20;99.90
18141;DHT22;9196;49.194;12.526;2023-10-13T00:34:04;15.20;99.90
18141;DHT22;9196;49.194;12.526;2023-10-13T00:36:36;15.30;99.90
18141;DHT22;9196;49.194;12.526;2023-10-13T00:39:12;15.30;99.90
18141;DHT22;9196;49.194;12.526;2023-10-13T00:41:41;15.30;99.90
18141;DHT22;9196;49.194;12.526;2023-10-13T00:44:17;15.30;99.90
18141;DHT22;9196;49.194;12.526;2023-10-13T00:46:45;15.30;99.90
18141;DHT22;9196;49.194;12.526;2023-10-13T00:49:14;15.30;99.90
18141;DHT22;9196;49.194;12.526;2023-10-13T00:51:41;15.30;99.90
18141;DHT22;9196;49.194;12.526;2023-10-13T00:54:13;15.20;99.90
18141;DHT22;9196;49.194;12.526;2023-10-13T00:56:42;15.30;99.90
18141;DHT22;9196;49.194;12.526;2023-10-13T00:59:13;15.20;99.90
18141;DHT22;9196;49.194;12.526;2023-10-13T01:01:39;15.20;99.90
18141;DHT22;9196;49.194;12.526;2023-10-13T01:04:11;15.20;99.90
18141;DHT22;9196;49.194;12.526;2023-10-13T01:06:40;15.20;99.90
18141;DHT22;9196;49.194;12.526;2023-10-13T01:09:09;15.20;99.90
18141;DHT22;9196;49.194;12.526;2023-10-13T01:11:39;15.30;99.90
18141;DHT22;9196;49.194;12.526;2023-10-13T01:14:08;15.20;99.90
18141;DHT22;9196;49.194;12.526;2023-10-13T01:16:36;15.30;99.90
18141;DHT22;9196;49.194;12.526;2023-10-13T01:19:05;15.30;99.90
18141;DHT22;9196;49.194;12.526;2023-10-13T01:21:33;15.30;99.90
18141;DHT22;9196;49.194;12.526;2023-10-13T01:24:02;15.30;99.90
18141;DHT22;9196;49.194;12.526;2023-10-13T01:26:33;15.20;99.90
18141;DHT22;9196;49.194;12.526;2023-10-13T01:29:04;15.30;99.90
18141;DHT22;9196;49.194;12.526;2023-10-13T01:31:37;15.20;99.90
18141;DHT22;9196;49.194;12.526;2023-10-13T01:34:11;15.10;99.90
18141;DHT22;9196;49.194;12.526;2023-10-13T01:36:38;15.00;99.90
18141;DHT22;9196;49.194;12.526;2023-10-13T01:39:07;15.00;99.90
18141;DHT22;9196;49.194;12.526;2023-10-13T01:41:33;15.00;99.90
18141;DHT22;9196;49.194;12.526;2023-10-13T01:44:03;15.00;99.90
18141;DHT22;9196;49.194;12.526;2023-10-13T01:46:30;15.00;99.90
18141;DHT22;9196;49.194;12.526;2023-10-13T01:48:56;15.10;99.90
18141;DHT22;9196;49.194;12.526;2023-10-13T01:51:22;15.10;99.90
18141;DHT22;9196;49.194;12.526;2023-10-13T01:53:48;15.10;99.90
18141;DHT22;9196;49.194;12.526;2023-10-13T01:56:23;15.10;99.90
18141;DHT22;9196;49.194;12.526;2023-10-13T01:58:49;15.10;99.90
18141;DHT22;9196;49.194;12.526;2023-10-13T02:01:16;15.10;99.90
18141;DHT22;9196;49.194;12.526;2023-10-13T02:03:52;15.10;99.90
18141;DHT22;9196;49.194;12.526;2023-10-13T02:06:27;15.10;99.90
18141;DHT22;9196;49.194;12.526;2023-10-13T02:08:58;15.10;99.90
18141;DHT22;9196;49.194;12.526;2023-10-13T02:11:32;15.10;99.90
18141;DHT22;9196;49.194;12.526;2023-10-13T02:13:58;15.00;99.90
18141;DHT22;9196;49.194;12.526;2023-10-13T02:16:25;15.00;99.90
18141;DHT22;9196;49.194;12.526;2023-10-13T02:18:51;15.10;99.90
18141;DHT22;9196;49.194;12.526;2023-10-13T02:21:18;15.00;99.90
18141;DHT22;9196;49.194;12.526;2023-10-13T02:23:44;15.00;99.90
18141;DHT22;9196;49.194;12.526;2023-10-13T02:26:25;15.00;99.90
18141;DHT22;9196;49.194;12.526;2023-10-13T02:28:57;15.00;99.90
18141;DHT22;9196;49.194;12.526;2023-10-13T02:31:27;15.10;99.90
18141;DHT22;9196;49.194;12.526;2023-10-13T02:33:53;15.00;99.90
18141;DHT22;9196;49.194;12.526;2023-10-13T02:36:20;15.00;99.90
18141;DHT22;9196;49.194;12.526;2023-10-13T02:38:48;15.00;99.90
18141;DHT22;9196;49.194;12.526;2023-10-13T02:41:18;15.00;99.90
18141;DHT22;9196;49.194;12.526;2023-10-13T02:43:51;15.10;99.90
18141;DHT22;9196;49.194;12.526;2023-10-13T02:46:19;15.10;99.90
18141;DHT22;9196;49.194;12.526;2023-10-13T02:48:47;15.00;99.90
18141;DHT22;9196;49.194;12.526;2023-10-13T02:51:19;15.00;99.90
18141;DHT22;9196;49.194;12.526;2023-10-13T02:53:48;15.00;99.90
18141;DHT22;9196;49.194;12.526;2023-10-13T02:56:15;15.00;99.90
18141;DHT22;9196;49.194;12.526;2023-10-13T02:58:47;15.00;99.90
18141;DHT22;9196;49.194;12.526;2023-10-13T03:01:20;15.10;99.90
18141;DHT22;9196;49.194;12.526;2023-10-13T03:03:49;15.10;99.90
18141;DHT22;9196;49.194;12.526;2023-10-13T03:06:18;15.10;99.90
18141;DHT22;9196;49.194;12.526;2023-10-13T03:08:48;15.10;99.90
18141;DHT22;9196;49.194;12.526;2023-10-13T03:11:14;15.10;99.90
18141;DHT22;9196;49.194;12.526;2023-10-13T03:13:47;15.10;99.90
18141;DHT22;9196;49.194;12.526;2023-10-13T03:16:16;15.00;99.90
18141;DHT22;9196;49.194;12.526;2023-10-13T03:18:46;15.00;99.90
18141;DHT22;9196;49.194;12.526;2023-10-13T03:21:22;15.00;99.90
18141;DHT22;9196;49.194;12.526;2023-10-13T03:23:58;14.90;99.90
18141;DHT22;9196;49.194;12.526;2023-10-13T03:26:32;15.00;99.90
18141;DHT22;9196;49.194;12.526;2023-10-13T03:29:09;15.00;99.90
18141;DHT22;9196;49.194;12.526;2023-10-13T03:31:39;14.90;99.90
18141;DHT22;9196;49.194;12.526;2023-10-13T03:34:06;14.90;99.90
18141;DHT22;9196;49.194;12.526;2023-10-13T03:36:37;14.90;99.90
18141;DHT22;9196;49.194;12.526;2023-10-13T03:39:23;14.90;99.90
18141;DHT22;9196;49.194;12.526;2023-10-13T03:41:55;14.90;99.90
18141;DHT22;9196;49.194;12.526;2023-10-13T03:44:22;14.90;99.90
18141;DHT22;9196;49.194;12.526;2023-10-13T03:46:49;14.90;99.90
18141;DHT22;9196;49.194;12.526;2023-10-13T03:49:21;14.90;99.90
18141;DHT22;9196;49.194;12.526;2023-10-13T03:51:50;14.90;99.90
18141;DHT22;9196;49.194;12.526;2023-10-13T03:54:20;14.90;99.90
18141;DHT22;9196;49.194;12.526;2023-10-13T03:56:47;14.80;99.90
18141;DHT22;9196;49.194;12.526;2023-10-13T03:59:18;14.80;99.90
18141;DHT22;9196;49.194;12.526;2023-10-13T04:01:45;14.80;99.90
18141;DHT22;9196;49.194;12.526;2023-10-13T04:04:13;14.80;99.90
18141;DHT22;9196;49.194;12.526;2023-10-13T04:06:42;14.80;99.90
18141;DHT22;9196;49.194;12.526;2023-10-13T04:09:22;14.80;99.90
18141;DHT22;9196;49.194;12.526;2023-10-13T04:12:07;14.70;99.90
18141;DHT22;9196;49.194;12.526;2023-10-13T04:15:13;14.70;99.90
18141;DHT22;9196;49.194;12.526;2023-10-13T04:17:45;14.60;99.90
18141;DHT22;9196;49.194;12.526;2023-10-13T04:20:14;14.60;99.90
18141;DHT22;9196;49.194;12.526;2023-10-13T04:22:55;14.60;99.90
18141;DHT22;9196;49.194;12.526;2023-10-13T04:25:40;14.70;99.90
18141;DHT22;9196;49.194;12.526;2023-10-13T04:28:30;14.60;99.90
18141;DHT22;9196;49.194;12.526;2023-10-13T04:31:17;14.60;99.90
18141;DHT22;9196;49.194;12.526;2023-10-13T04:34:07;14.60;99.90
18141;DHT22;9196;49.194;12.526;2023-10-13T04:36:41;14.60;99.90
18141;DHT22;9196;49.194;12.526;2023-10-13T04:39:12;14.60;99.90
18141;DHT22;9196;49.194;12.526;2023-10-13T04:41:54;14.60;99.90
18141;DHT22;9196;49.194;12.526;2023-10-13T04:44:24;14.60;99.90
18141;DHT22;9196;49.194;12.526;2023-10-13T04:47:09;14.60;99.90
18141;DHT22;9196;49.194;12.526;2023-10-13T04:49:43;14.60;99.90
18141;DHT22;9196;49.194;12.526;2023-10-13T04:52:18;14.60;99.90
18141;DHT22;9196;49.194;12.526;2023-10-13T04:55:05;14.60;99.90
18141;DHT22;9196;49.194;12.526;2023-10-13T04:57:50;14.60;99.90
18141;DHT22;9196;49.194;12.526;2023-10-13T05:00:25;14.60;99.90
18141;DHT22;9196;49.194;12.526;2023-10-13T05:03:10;14.60;99.90
18141;DHT22;9196;49.194;12.526;2023-10-13T05:05:54;14.60;99.90
18141;DHT22;9196;49.194;12.526;2023-10-13T05:08:53;14.60;99.90
18141;DHT22;9196;49.194;12.526;2023-10-13T05:11:44;14.50;99.90
18141;DHT22;9196;49.194;12.526;2023-10-13T05:14:28;14.60;99.90
18141;DHT22;9196;49.194;12.526;2023-10-13T05:17:12;14.50;99.90
18141;DHT22;9196;49.194;12.526;2023-10-13T05:19:57;14.50;99.90
18141;DHT22;9196;49.194;12.526;2023-10-13T05:22:41;14.50;99.90
18141;DHT22;9196;49.194;12.526;2023-10-13T05:25:26;14.50;99.90
18141;DHT22;9196;49.194;12.526;2023-10-13T05:28:11;14.50;99.90
18141;DHT22;9196;49.194;12.526;2023-10-13T05:30:58;14.50;99.90
18141;DHT22;9196;49.194;12.526;2023-10-13T05:33:42;14.40;99.90
18141;DHT22;9196;49.194;12.526;2023-10-13T05:36:26;14.40;99.90
18141;DHT22;9196;49.194;12.526;2023-10-13T05:39:10;14.40;99.90
18141;DHT22;9196;49.194;12.526;2023-10-13T05:41:54;14.30;99.90
18141;DHT22;9196;49.194;12.526;2023-10-13T05:44:40;14.30;99.90
18141;DHT22;9196;49.194;12.526;2023-10-13T05:47:22;14.30;99.90
18141;DHT22;9196;49.194;12.526;2023-10-13T05:50:07;14.30;99.90
18141;DHT22;9196;49.194;12.526;2023-10-13T05:52:54;14.20;99.90
18141;DHT22;9196;49.194;12.526;2023-10-13T05:55:38;14.30;99.90
18141;DHT22;9196;49.194;12.526;2023-10-13T05:58:22;14.20;99.90
18141;DHT22;9196;49.194;12.526;2023-10-13T06:01:12;14.20;99.90
18141;DHT22;9196;49.194;12.526;2023-10-13T06:03:56;14.30;99.90
18141;DHT22;9196;49.194;12.526;2023-10-13T06:06:40;14.30;99.90
18141;DHT22;9196;49.194;12.526;2023-10-13T06:09:24;14.20;99.90
18141;DHT22;9196;49.194;12.526;2023-10-13T06:12:09;14.30;99.90
18141;DHT22;9196;49.194;12.526;2023-10-13T06:14:53;14.30;99.90
18141;DHT22;9196;49.194;12.526;2023-10-13T06:17:38;14.30;99.90
18141;DHT22;9196;49.194;12.526;2023-10-13T06:20:22;14.30;99.90
18141;DHT22;9196;49.194;12.526;2023-10-13T06:23:06;14.40;99.90
18141;DHT22;9196;49.194;12.526;2023-10-13T06:25:51;14.50;99.90
18141;DHT22;9196;49.194;12.526;2023-10-13T06:28:35;14.50;99.90
18141;DHT22;9196;49.194;12.526;2023-10-13T06:31:08;14.60;99.90
18141;DHT22;9196;49.194;12.526;2023-10-13T06:33:41;14.70;99.90
18141;DHT22;9196;49.194;12.526;2023-10-13T06:36:11;14.70;99.90
18141;DHT22;9196;49.194;12.526;2023-10-13T06:38:37;14.80;99.90
18141;DHT22;9196;49.194;12.526;2023-10-13T06:41:05;14.90;99.90
18141;DHT22;9196;49.194;12.526;2023-10-13T06:43:32;14.90;99.90
18141;DHT22;9196;49.194;12.526;2023-10-13T06:46:05;15.00;99.90
18141;DHT22;9196;49.194;12.526;2023-10-13T06:48:33;15.00;99.90
18141;DHT22;9196;49.194;12.526;2023-10-13T06:51:02;15.10;99.90
18141;DHT22;9196;49.194;12.526;2023-10-13T06:53:43;15.10;99.90
18141;DHT22;9196;49.194;12.526;2023-10-13T06:56:13;15.20;99.90
18141;DHT22;9196;49.194;12.526;2023-10-13T06:58:43;15.30;99.90
18141;DHT22;9196;49.194;12.526;2023-10-13T07:01:12;15.40;99.90
18141;DHT22;9196;49.194;12.526;2023-10-13T07:03:44;15.50;99.90
18141;DHT22;9196;49.194;12.526;2023-10-13T07:06:19;15.70;99.90
18141;DHT22;9196;49.194;12.526;2023-10-13T07:08:46;15.80;99.90
18141;DHT22;9196;49.194;12.526;2023-10-13T07:11:17;16.00;99.90
18141;DHT22;9196;49.194;12.526;2023-10-13T07:13:48;16.10;99.90
18141;DHT22;9196;49.194;12.526;2023-10-13T07:16:18;16.20;99.90
18141;DHT22;9196;49.194;12.526;2023-10-13T07:18:45;16.30;99.90
18141;DHT22;9196;49.194;12.526;2023-10-13T07:21:19;16.40;99.90
18141;DHT22;9196;49.194;12.526;2023-10-13T07:23:51;16.50;99.90
18141;DHT22;9196;49.194;12.526;2023-10-13T07:26:34;16.60;99.90
18141;DHT22;9196;49.194;12.526;2023-10-13T07:29:02;16.80;99.90
18141;DHT22;9196;49.194;12.526;2023-10-13T07:31:33;16.80;99.90
18141;DHT22;9196;49.194;12.526;2023-10-13T07:34:00;16.80;99.90
18141;DHT22;9196;49.194;12.526;2023-10-13T07:36:36;16.80;99.90
18141;DHT22;9196;49.194;12.526;2023-10-13T07:39:06;16.80;99.90
18141;DHT22;9196;49.194;12.526;2023-10-13T07:41:47;16.80;99.90
18141;DHT22;9196;49.194;12.526;2023-10-13T07:44:18;17.00;99.90
18141;DHT22;9196;49.194;12.526;2023-10-13T07:46:51;17.10;99.90
18141;DHT22;9196;49.194;12.526;2023-10-13T07:49:28;17.20;99.90
18141;DHT22;9196;49.194;12.526;2023-10-13T07:51:58;17.30;99.90
18141;DHT22;9196;49.194;12.526;2023-10-13T07:54:26;17.40;99.90
18141;DHT22;9196;49.194;12.526;2023-10-13T07:56:53;17.50;99.90
18141;DHT22;9196;49.194;12.526;2023-10-13T07:59:20;17.60;99.90
18141;DHT22;9196;49.194;12.526;2023-10-13T08:01:49;17.60;99.90
18141;DHT22;9196;49.194;12.526;2023-10-13T08:04:37;17.70;99.90
18141;DHT22;9196;49.194;12.526;2023-10-13T08:07:06;17.80;99.90
18141;DHT22;9196;49.194;12.526;2023-10-13T08:09:39;17.90;99.90
18141;DHT22;9196;49.194;12.526;2023-10-13T08:12:07;17.90;99.90
18141;DHT22;9196;49.194;12.526;2023-10-13T08:14:37;18.00;99.90
18141;DHT22;9196;49.194;12.526;2023-10-13T08:17:06;18.10;99.90
18141;DHT22;9196;49.194;12.526;2023-10-13T08:19:34;18.20;99.90
18141;DHT22;9196;49.194;12.526;2023-10-13T08:22:09;18.30;99.90
18141;DHT22;9196;49.194;12.526;2023-10-13T08:24:52;18.40;99.90
18141;DHT22;9196;49.194;12.526;2023-10-13T08:27:24;18.50;99.90
18141;DHT22;9196;49.194;12.526;2023-10-13T08:30:00;18.70;99.90
18141;DHT22;9196;49.194;12.526;2023-10-13T08:32:44;18.70;99.90
18141;DHT22;9196;49.194;12.526;2023-10-13T08:35:20;18.80;99.90
18141;DHT22;9196;49.194;12.526;2023-10-13T08:38:01;18.90;99.90
18141;DHT22;9196;49.194;12.526;2023-10-13T08:40:43;19.00;99.90
18141;DHT22;9196;49.194;12.526;2023-10-13T08:43:43;19.10;99.90
18141;DHT22;9196;49.194;12.526;2023-10-13T08:46:11;19.20;99.90
18141;DHT22;9196;49.194;12.526;2023-10-13T08:48:55;19.20;99.90
18141;DHT22;9196;49.194;12.526;2023-10-13T08:51:33;19.30;99.90
18141;DHT22;9196;49.194;12.526;2023-10-13T08:54:13;19.30;99.90
18141;DHT22;9196;49.194;12.526;2023-10-13T08:56:59;19.40;99.90
18141;DHT22;9196;49.194;12.526;2023-10-13T08:59:32;19.50;99.90
18141;DHT22;9196;49.194;12.526;2023-10-13T09:02:12;19.60;99.90
18141;DHT22;9196;49.194;12.526;2023-10-13T09:04:43;19.70;99.90
18141;DHT22;9196;49.194;12.526;2023-10-13T09:07:10;19.80;99.90
18141;DHT22;9196;49.194;12.526;2023-10-13T09:09:52;19.90;99.90
18141;DHT22;9196;49.194;12.526;2023-10-13T09:12:37;19.90;99.90
18141;DHT22;9196;49.194;12.526;2023-10-13T09:15:07;20.00;99.90
18141;DHT22;9196;49.194;12.526;2023-10-13T09:17:46;20.00;99.90
18141;DHT22;9196;49.194;12.526;2023-10-13T09:20:27;20.10;99.90
18141;DHT22;9196;49.194;12.526;2023-10-13T09:23:09;20.20;99.90
18141;DHT22;9196;49.194;12.526;2023-10-13T09:25:38;20.30;99.90
18141;DHT22;9196;49.194;12.526;2023-10-13T09:28:19;20.40;99.90
18141;DHT22;9196;49.194;12.526;2023-10-13T09:30:48;20.50;99.90
18141;DHT22;9196;49.194;12.526;2023-10-13T09:33:19;20.60;99.90
18141;DHT22;9196;49.194;12.526;2023-10-13T09:35:54;20.70;99.90
18141;DHT22;9196;49.194;12.526;2023-10-13T09:38:25;20.80;99.40
18141;DHT22;9196;49.194;12.526;2023-10-13T09:40:53;20.90;99.70
18141;DHT22;9196;49.194;12.526;2023-10-13T09:43:23;21.00;99.30
18141;DHT22;9196;49.194;12.526;2023-10-13T09:45:51;21.10;99.30
18141;DHT22;9196;49.194;12.526;2023-10-13T09:48:32;21.30;99.30
18141;DHT22;9196;49.194;12.526;2023-10-13T09:51:00;21.40;98.70
18141;DHT22;9196;49.194;12.526;2023-10-13T09:53:30;21.60;99.40
18141;DHT22;9196;49.194;12.526;2023-10-13T09:56:03;21.70;97.60
18141;DHT22;9196;49.194;12.526;2023-10-13T09:58:50;21.60;97.00
18141;DHT22;9196;49.194;12.526;2023-10-13T10:01:22;21.70;97.70
18141;DHT22;9196;49.194;12.526;2023-10-13T10:04:07;21.80;97.50
18141;DHT22;9196;49.194;12.526;2023-10-13T10:06:34;21.80;96.80
18141;DHT22;9196;49.194;12.526;2023-10-13T10:09:10;21.80;95.80
18141;DHT22;9196;49.194;12.526;2023-10-13T10:12:01;21.80;95.20
18141;DHT22;9196;49.194;12.526;2023-10-13T10:14:56;21.80;94.70
18141;DHT22;9196;49.194;12.526;2023-10-13T10:17:24;21.70;95.20
18141;DHT22;9196;49.194;12.526;2023-10-13T10:19:55;21.90;95.40
18141;DHT22;9196;49.194;12.526;2023-10-13T10:22:26;22.00;94.70
18141;DHT22;9196;49.194;12.526;2023-10-13T10:24:56;22.00;93.80
18141;DHT22;9196;49.194;12.526;2023-10-13T10:27:27;22.20;95.00
18141;DHT22;9196;49.194;12.526;2023-10-13T10:29:56;22.30;94.50
18141;DHT22;9196;49.194;12.526;2023-10-13T10:32:35;22.30;94.30
18141;DHT22;9196;49.194;12.526;2023-10-13T10:35:06;22.30;92.80
18141;DHT22;9196;49.194;12.526;2023-10-13T10:37:35;22.10;92.90
18141;DHT22;9196;49.194;12.526;2023-10-13T10:40:07;22.10;93.20
18141;DHT22;9196;49.194;12.526;2023-10-13T10:42:36;22.10;93.30
18141;DHT22;9196;49.194;12.526;2023-10-13T10:45:09;22.30;92.70
18141;DHT22;9196;49.194;12.526;2023-10-13T10:47:37;22.40;92.90
18141;DHT22;9196;49.194;12.526;2023-10-13T10:50:06;22.60;92.70
18141;DHT22;9196;49.194;12.526;2023-10-13T10:52:45;22.80;92.00
18141;DHT22;9196;49.194;12.526;2023-10-13T10:55:12;22.90;91.70
18141;DHT22;9196;49.194;12.526;2023-10-13T10:57:41;23.10;92.00
18141;DHT22;9196;49.194;12.526;2023-10-13T11:00:18;23.20;91.60
18141;DHT22;9196;49.194;12.526;2023-10-13T11:02:53;23.10;91.60
18141;DHT22;9196;49.194;12.526;2023-10-13T11:05:21;23.00;92.40
18141;DHT22;9196;49.194;12.526;2023-10-13T11:07:50;23.00;92.30
18141;DHT22;9196;49.194;12.526;2023-10-13T11:10:17;23.00;92.60
18141;DHT22;9196;49.194;12.526;2023-10-13T11:12:57;22.90;93.10
18141;DHT22;9196;49.194;12.526;2023-10-13T11:15:41;22.90;91.40
18141;DHT22;9196;49.194;12.526;2023-10-13T11:18:10;22.90;91.90
18141;DHT22;9196;49.194;12.526;2023-10-13T11:20:42;23.00;91.90
18141;DHT22;9196;49.194;12.526;2023-10-13T11:23:11;23.10;93.10
18141;DHT22;9196;49.194;12.526;2023-10-13T11:25:38;23.40;91.00
18141;DHT22;9196;49.194;12.526;2023-10-13T11:28:13;23.50;90.60
18141;DHT22;9196;49.194;12.526;2023-10-13T11:30:46;23.40;89.90
18141;DHT22;9196;49.194;12.526;2023-10-13T11:33:16;23.30;90.10
18141;DHT22;9196;49.194;12.526;2023-10-13T11:35:47;23.20;90.50
18141;DHT22;9196;49.194;12.526;2023-10-13T11:38:23;23.30;91.20
18141;DHT22;9196;49.194;12.526;2023-10-13T11:40:55;23.40;89.20
18141;DHT22;9196;49.194;12.526;2023-10-13T11:43:45;23.70;88.80
18141;DHT22;9196;49.194;12.526;2023-10-13T11:46:27;23.90;87.40
18141;DHT22;9196;49.194;12.526;2023-10-13T11:49:12;24.20;87.90
18141;DHT22;9196;49.194;12.526;2023-10-13T11:51:47;24.50;88.10
18141;DHT22;9196;49.194;12.526;2023-10-13T11:54:14;24.80;85.60
18141;DHT22;9196;49.194;12.526;2023-10-13T11:56:42;25.00;85.30
18141;DHT22;9196;49.194;12.526;2023-10-13T11:59:10;25.00;84.80
18141;DHT22;9196;49.194;12.526;2023-10-13T12:01:44;24.90;81.50
18141;DHT22;9196;49.194;12.526;2023-10-13T12:04:25;24.70;80.30
18141;DHT22;9196;49.194;12.526;2023-10-13T12:07:06;24.70;82.10
18141;DHT22;9196;49.194;12.526;2023-10-13T12:09:43;24.70;79.00
18141;DHT22;9196;49.194;12.526;2023-10-13T12:12:29;24.80;81.10
18141;DHT22;9196;49.194;12.526;2023-10-13T12:14:57;24.90;80.40
18141;DHT22;9196;49.194;12.526;2023-10-13T12:17:34;25.10;80.50
18141;DHT22;9196;49.194;12.526;2023-10-13T12:20:02;25.30;80.20
18141;DHT22;9196;49.194;12.526;2023-10-13T12:22:30;25.00;77.30
18141;DHT22;9196;49.194;12.526;2023-10-13T12:25:05;25.00;77.00
18141;DHT22;9196;49.194;12.526;2023-10-13T12:27:44;25.00;77.70
18141;DHT22;9196;49.194;12.526;2023-10-13T12:30:15;25.20;77.40
18141;DHT22;9196;49.194;12.526;2023-10-13T12:32:49;25.40;75.30
18141;DHT22;9196;49.194;12.526;2023-10-13T12:35:31;25.70;76.40
18141;DHT22;9196;49.194;12.526;2023-10-13T12:38:10;25.80;74.60
18141;DHT22;9196;49.194;12.526;2023-10-13T12:41:04;25.80;76.40
18141;DHT22;9196;49.194;12.526;2023-10-13T12:43:49;26.00;75.20
18141;DHT22;9196;49.194;12.526;2023-10-13T12:46:33;26.00;71.70
18141;DHT22;9196;49.194;12.526;2023-10-13T12:49:17;25.70;70.90
18141;DHT22;9196;49.194;12.526;2023-10-13T12:52:04;25.50;71.90
18141;DHT22;9196;49.194;12.526;2023-10-13T12:54:41;25.50;72.00
18141;DHT22;9196;49.194;12.526;2023-10-13T12:57:12;25.50;73.10
18141;DHT22;9196;49.194;12.526;2023-10-13T12:59:39;25.60;72.80
18141;DHT22;9196;49.194;12.526;2023-10-13T13:02:07;25.60;71.80
18141;DHT22;9196;49.194;12.526;2023-10-13T13:04:40;25.70;72.70
18141;DHT22;9196;49.194;12.526;2023-10-13T13:07:09;25.90;72.40
18141;DHT22;9196;49.194;12.526;2023-10-13T13:09:39;26.10;72.00
18141;DHT22;9196;49.194;12.526;2023-10-13T13:12:06;26.30;72.00
18141;DHT22;9196;49.194;12.526;2023-10-13T13:14:33;26.50;73.60
18141;DHT22;9196;49.194;12.526;2023-10-13T13:17:00;26.50;70.10
18141;DHT22;9196;49.194;12.526;2023-10-13T13:19:32;26.90;73.40
18141;DHT22;9196;49.194;12.526;2023-10-13T13:22:01;27.20;71.20
18141;DHT22;9196;49.194;12.526;2023-10-13T13:24:29;27.10;70.20
18141;DHT22;9196;49.194;12.526;2023-10-13T13:26:56;26.90;69.30
18141;DHT22;9196;49.194;12.526;2023-10-13T13:29:28;26.90;69.80
18141;DHT22;9196;49.194;12.526;2023-10-13T13:31:55;26.60;68.80
18141;DHT22;9196;49.194;12.526;2023-10-13T13:34:22;26.40;69.70
18141;DHT22;9196;49.194;12.526;2023-10-13T13:36:50;26.40;70.20
18141;DHT22;9196;49.194;12.526;2023-10-13T13:39:19;26.30;70.60
18141;DHT22;9196;49.194;12.526;2023-10-13T13:41:54;26.40;71.50
18141;DHT22;9196;49.194;12.526;2023-10-13T13:44:23;26.40;71.60
18141;DHT22;9196;49.194;12.526;2023-10-13T13:46:55;26.50;72.20
18141;DHT22;9196;49.194;12.526;2023-10-13T13:49:22;26.70;72.50
18141;DHT22;9196;49.194;12.526;2023-10-13T13:51:56;26.90;72.60
18141;DHT22;9196;49.194;12.526;2023-10-13T13:54:30;27.10;72.10
18141;DHT22;9196;49.194;12.526;2023-10-13T13:56:56;27.40;72.20
18141;DHT22;9196;49.194;12.526;2023-10-13T13:59:23;27.20;70.30
18141;DHT22;9196;49.194;12.526;2023-10-13T14:01:50;27.20;70.20
18141;DHT22;9196;49.194;12.526;2023-10-13T14:04:18;27.00;69.90
18141;DHT22;9196;49.194;12.526;2023-10-13T14:06:45;26.60;70.50
18141;DHT22;9196;49.194;12.526;2023-10-13T14:09:14;26.70;71.20
18141;DHT22;9196;49.194;12.526;2023-10-13T14:11:42;26.70;70.50
18141;DHT22;9196;49.194;12.526;2023-10-13T14:14:27;26.60;68.90
18141;DHT22;9196;49.194;12.526;2023-10-13T14:16:59;26.70;69.70
18141;DHT22;9196;49.194;12.526;2023-10-13T14:19:33;26.40;67.60
18141;DHT22;9196;49.194;12.526;2023-10-13T14:22:01;26.00;68.70
18141;DHT22;9196;49.194;12.526;2023-10-13T14:24:34;25.90;69.50
18141;DHT22;9196;49.194;12.526;2023-10-13T14:27:09;25.70;70.10
18141;DHT22;9196;49.194;12.526;2023-10-13T14:29:38;25.60;70.90
18141;DHT22;9196;49.194;12.526;2023-10-13T14:32:07;25.40;70.50
18141;DHT22;9196;49.194;12.526;2023-10-13T14:34:38;25.30;72.10
18141;DHT22;9196;49.194;12.526;2023-10-13T14:37:05;25.30;71.20
18141;DHT22;9196;49.194;12.526;2023-10-13T14:39:34;25.20;71.80
18141;DHT22;9196;49.194;12.526;2023-10-13T14:42:02;25.40;71.90
18141;DHT22;9196;49.194;12.526;2023-10-13T14:44:31;25.70;71.50
18141;DHT22;9196;49.194;12.526;2023-10-13T14:46:58;25.90;71.00
18141;DHT22;9196;49.194;12.526;2023-10-13T14:49:25;26.00;71.70
18141;DHT22;9196;49.194;12.526;2023-10-13T14:51:52;26.10;70.30
18141;DHT22;9196;49.194;12.526;2023-10-13T14:54:20;26.30;70.20
18141;DHT22;9196;49.194;12.526;2023-10-13T14:56:59;26.50;69.60
18141;DHT22;9196;49.194;12.526;2023-10-13T14:59:27;26.60;70.20
18141;DHT22;9196;49.194;12.526;2023-10-13T15:01:59;26.60;70.60
18141;DHT22;9196;49.194;12.526;2023-10-13T15:04:26;26.60;70.30
18141;DHT22;9196;49.194;12.526;2023-10-13T15:06:54;26.80;71.20
18141;DHT22;9196;49.194;12.526;2023-10-13T15:09:21;26.80;71.00
18141;DHT22;9196;49.194;12.526;2023-10-13T15:11:50;26.90;71.20
18141;DHT22;9196;49.194;12.526;2023-10-13T15:14:20;27.00;71.60
18141;DHT22;9196;49.194;12.526;2023-10-13T15:16:48;27.10;71.60
18141;DHT22;9196;49.194;12.526;2023-10-13T15:19:15;27.00;70.30
18141;DHT22;9196;49.194;12.526;2023-10-13T15:21:42;26.40;71.40
18141;DHT22;9196;49.194;12.526;2023-10-13T15:24:15;26.30;71.80
18141;DHT22;9196;49.194;12.526;2023-10-13T15:26:42;26.30;72.50
18141;DHT22;9196;49.194;12.526;2023-10-13T15:29:14;26.10;72.80
18141;DHT22;9196;49.194;12.526;2023-10-13T15:31:43;26.00;73.40
18141;DHT22;9196;49.194;12.526;2023-10-13T15:34:30;25.70;73.60
18141;DHT22;9196;49.194;12.526;2023-10-13T15:37:00;25.50;74.30
18141;DHT22;9196;49.194;12.526;2023-10-13T15:39:30;25.40;75.20
18141;DHT22;9196;49.194;12.526;2023-10-13T15:41:58;25.30;75.50
18141;DHT22;9196;49.194;12.526;2023-10-13T15:44:25;25.20;75.90
18141;DHT22;9196;49.194;12.526;2023-10-13T15:46:57;25.00;76.80
18141;DHT22;9196;49.194;12.526;2023-10-13T15:49:25;24.80;77.80
18141;DHT22;9196;49.194;12.526;2023-10-13T15:51:53;24.70;77.80
18141;DHT22;9196;49.194;12.526;2023-10-13T15:54:22;24.60;78.60
18141;DHT22;9196;49.194;12.526;2023-10-13T15:56:50;24.50;79.00
18141;DHT22;9196;49.194;12.526;2023-10-13T15:59:17;24.40;79.60
18141;DHT22;9196;49.194;12.526;2023-10-13T16:01:44;24.30;80.30
18141;DHT22;9196;49.194;12.526;2023-10-13T16:04:15;24.30;80.50
18141;DHT22;9196;49.194;12.526;2023-10-13T16:06:46;24.20;80.80
18141;DHT22;9196;49.194;12.526;2023-10-13T16:09:16;23.90;80.50